Time;durP1;ratioP1;P1;durP2;ratioP2;P2;SDS_P1;SDS_P2;PMS_P1;PMS_P2;Temp;Humidity;BMP_temperature;BMP_pressure;BME280_temperature;BME280_humidity;BME280_pressure;Samples;Min_cycle;Max_cycle;Signal;HPM_P1;HPM_P2
2021/08/28 00:00:59;;;;;;;817.70;767.63;;;;;;;18.53;59.14;93257.63;5090953;28;20378;-48
2021/08/28 00:03:24;;;;;;;823.25;774.30;;;;;;;18.59;58.79;93262.84;5090813;28;20027;-48
2021/08/28 00:05:50;;;;;;;802.13;753.70;;;;;;;18.56;58.90;93248.00;5090622;28;20059;-46
2021/08/28 00:08:16;;;;;;;809.65;759.75;;;;;;;18.62;59.58;93256.78;5089572;28;20030;-48
2021/08/28 00:10:42;;;;;;;824.78;773.80;;;;;;;18.59;58.94;93260.78;5090378;28;20189;-50
2021/08/28 00:13:08;;;;;;;808.70;759.58;;;;;;;18.61;59.39;93260.91;5090781;28;20031;-48
2021/08/28 00:15:34;;;;;;;842.50;791.60;;;;;;;18.67;59.76;93263.31;5090398;28;20024;-45
2021/08/28 00:17:59;;;;;;;818.88;768.33;;;;;;;18.66;58.96;93256.28;5090492;28;20036;-46
2021/08/28 00:20:25;;;;;;;797.50;748.38;;;;;;;18.63;59.23;93269.41;5089071;28;20111;-47
2021/08/28 00:22:51;;;;;;;807.38;758.15;;;;;;;18.64;59.55;93258.97;5090349;28;20074;-48
2021/08/28 00:25:16;;;;;;;841.97;789.33;;;;;;;18.58;59.05;93261.38;5090202;28;20112;-46
2021/08/28 00:27:42;;;;;;;838.78;787.05;;;;;;;18.52;59.09;93266.59;5090013;28;20467;-48
2021/08/28 00:30:09;;;;;;;803.92;755.38;;;;;;;18.48;60.79;93264.28;5090519;28;20107;-51
2021/08/28 00:32:34;;;;;;;831.42;781.33;;;;;;;18.47;60.11;93254.44;5090407;28;20028;-48
2021/08/28 00:35:01;;;;;;;830.80;779.70;;;;;;;18.37;59.74;93264.22;5090567;28;20028;-48
2021/08/28 00:37:26;;;;;;;782.40;736.08;;;;;;;18.39;60.35;93267.13;5090364;28;20028;-47
2021/08/28 00:39:51;;;;;;;800.80;751.67;;;;;;;18.32;60.60;93263.22;5090487;28;20538;-49
2021/08/28 00:42:17;;;;;;;806.45;756.33;;;;;;;18.19;60.77;93244.28;5090384;28;20024;-46
2021/08/28 00:44:44;;;;;;;838.80;786.58;;;;;;;18.28;61.32;93260.19;5090376;28;20027;-48
2021/08/28 00:47:14;;;;;;;785.72;737.78;;;;;;;18.22;60.94;93259.09;5090129;28;20024;-46
2021/08/28 00:49:39;;;;;;;835.78;784.70;;;;;;;18.11;61.04;93258.47;5090413;28;20527;-47
2021/08/28 00:52:06;;;;;;;813.83;763.97;;;;;;;18.07;60.91;93266.59;5090030;28;20028;-50
2021/08/28 00:54:34;;;;;;;870.50;815.13;;;;;;;18.11;61.49;93255.66;5089969;28;20027;-47
2021/08/28 00:57:03;;;;;;;859.63;805.77;;;;;;;18.07;61.75;93252.63;5089986;28;20484;-48
2021/08/28 00:59:29;;;;;;;857.85;802.55;;;;;;;18.10;62.01;93259.06;5085254;28;20459;-47
2021/08/28 01:01:54;;;;;;;858.90;804.53;;;;;;;18.14;62.89;93260.06;5090066;28;20031;-47
2021/08/28 01:04:20;;;;;;;875.47;820.78;;;;;;;18.07;61.69;93255.41;5090064;28;20024;-46
2021/08/28 01:07:29;;;;;;;860.75;805.88;;;;;;;18.17;62.20;93264.41;5089828;28;20555;-46
2021/08/28 01:09:58;;;;;;;817.33;767.35;;;;;;;18.17;61.41;93261.63;4989751;28;20557;-46
2021/08/28 01:12:26;;;;;;;851.22;797.90;;;;;;;18.15;61.90;93263.56;5007707;28;20026;-47
2021/08/28 01:14:55;;;;;;;834.78;782.70;;;;;;;18.19;61.84;93272.22;5050985;28;20064;-48
2021/08/28 01:17:21;;;;;;;846.38;793.47;;;;;;;18.13;61.34;93258.59;5088964;28;20056;-46
2021/08/28 01:20:14;;;;;;;863.83;807.92;;;;;;;18.28;62.21;93270.66;5088601;28;20391;-46
2021/08/28 01:22:40;;;;;;;835.45;783.65;;;;;;;18.19;61.89;93252.66;5089823;28;20118;-46
2021/08/28 01:25:06;;;;;;;860.75;805.55;;;;;;;18.26;62.03;93268.44;5089639;28;20020;-47
2021/08/28 01:27:42;;;;;;;865.22;810.08;;;;;;;18.25;62.54;93266.28;5088346;28;20044;-46
2021/08/28 01:30:09;;;;;;;862.92;808.70;;;;;;;18.26;62.27;93260.06;5088407;28;20550;-46
2021/08/28 01:32:35;;;;;;;858.50;803.10;;;;;;;18.28;62.28;93253.91;5089877;28;20028;-46
2021/08/28 01:35:01;;;;;;;862.30;808.30;;;;;;;18.24;62.16;93248.75;5088825;28;20034;-47
2021/08/28 01:37:26;;;;;;;859.78;805.13;;;;;;;18.22;62.25;93247.91;5089436;28;20028;-48
2021/08/28 01:39:53;;;;;;;865.28;810.60;;;;;;;18.15;62.38;93247.53;5090335;28;20049;-48
2021/08/28 01:42:19;;;;;;;907.05;846.40;;;;;;;18.17;62.69;93244.88;5092375;28;20104;-47
2021/08/28 01:44:49;;;;;;;903.45;841.83;;;;;;;18.18;63.49;93240.75;5093090;28;20489;-45
2021/08/28 01:47:16;;;;;;;908.30;849.83;;;;;;;18.19;63.03;93247.78;5093369;28;20016;-47
2021/08/28 01:49:42;;;;;;;872.35;816.33;;;;;;;18.25;62.61;93241.13;5093054;28;20020;-46
2021/08/28 01:52:08;;;;;;;885.50;826.90;;;;;;;18.26;63.45;93234.91;5092987;28;20060;-47
2021/08/28 01:54:33;;;;;;;879.78;822.70;;;;;;;18.18;63.03;93218.38;5092625;28;20048;-46
2021/08/28 01:57:00;;;;;;;909.42;849.55;;;;;;;18.24;62.93;93232.00;5092879;28;20035;-47
2021/08/28 01:59:26;;;;;;;919.03;857.70;;;;;;;18.19;63.84;93233.81;5092999;28;20032;-48
2021/08/28 02:01:51;;;;;;;871.90;815.70;;;;;;;17.95;62.83;93235.06;5092931;28;20081;-47
2021/08/28 02:04:17;;;;;;;922.53;859.15;;;;;;;17.92;63.63;93236.28;5093035;28;20437;-47
2021/08/28 02:07:00;;;;;;;888.45;829.35;;;;;;;17.80;63.88;93229.22;5093043;28;20024;-45
2021/08/28 02:09:36;;;;;;;873.33;815.50;;;;;;;17.89;64.41;93243.06;5091780;28;20051;-50
2021/08/28 02:12:11;;;;;;;902.70;842.78;;;;;;;17.91;63.79;93243.19;5090528;28;20431;-45
2021/08/28 02:14:43;;;;;;;938.83;873.10;;;;;;;17.91;64.43;93240.41;5092875;28;20024;-48
2021/08/28 02:17:09;;;;;;;895.60;833.67;;;;;;;17.95;64.02;93242.75;5092807;28;20390;-47
2021/08/28 02:19:39;;;;;;;903.55;842.38;;;;;;;17.98;64.16;93239.47;5092810;28;20042;-48
2021/08/28 02:22:15;;;;;;;920.78;857.75;;;;;;;17.99;64.12;93249.31;5091259;28;20046;-47
2021/08/28 02:24:42;;;;;;;901.65;841.53;;;;;;;17.94;63.09;93252.44;5091486;28;20080;-46
2021/08/28 02:27:23;;;;;;;918.20;855.60;;;;;;;17.88;63.10;93250.00;5091939;28;20051;-45
2021/08/28 02:30:03;;;;;;;906.63;847.67;;;;;;;17.85;63.35;93245.63;5091360;28;20031;-45
2021/08/28 02:32:28;;;;;;;905.28;846.03;;;;;;;17.88;63.52;93252.81;5090995;28;20028;-46
2021/08/28 02:34:56;;;;;;;903.78;844.53;;;;;;;17.82;63.24;93246.81;5091345;28;20058;-47
2021/08/28 02:37:22;;;;;;;895.85;836.97;;;;;;;17.79;63.59;93245.22;5092379;28;20031;-47
2021/08/28 02:39:48;;;;;;;900.20;839.17;;;;;;;17.68;64.01;93237.53;5092076;28;20035;-46
2021/08/28 02:42:13;;;;;;;926.92;861.78;;;;;;;17.62;63.86;93234.34;5091162;28;20028;-46
2021/08/28 02:44:41;;;;;;;929.13;865.38;;;;;;;17.69;64.43;93255.03;5092022;28;20086;-47
2021/08/28 02:47:08;;;;;;;947.40;880.38;;;;;;;17.60;64.96;93259.34;5091859;28;20024;-48
2021/08/28 02:49:35;;;;;;;942.97;875.75;;;;;;;17.58;64.68;93262.03;5090959;28;20035;-47
2021/08/28 02:52:01;;;;;;;960.47;890.72;;;;;;;17.55;65.46;93254.09;5090512;28;20028;-49
2021/08/28 02:54:27;;;;;;;981.20;911.60;;;;;;;17.49;65.16;93248.84;5090618;28;20024;-48
2021/08/28 02:56:53;;;;;;;946.17;880.33;;;;;;;17.53;64.97;93243.53;5090859;28;20105;-50
2021/08/28 02:59:20;;;;;;;944.75;877.28;;;;;;;17.55;65.19;93251.31;5090450;28;20040;-48
2021/08/28 03:01:46;;;;;;;930.53;865.78;;;;;;;17.47;64.44;93259.13;5090794;28;20032;-49
2021/08/28 03:04:15;;;;;;;978.38;908.97;;;;;;;17.17;65.30;93269.03;5091890;28;20093;-48
2021/08/28 03:06:41;;;;;;;975.33;905.67;;;;;;;17.03;65.93;93273.66;5090698;28;20024;-51
2021/08/28 03:09:06;;;;;;;963.05;893.17;;;;;;;17.06;67.69;93262.03;5091781;28;20451;-49
2021/08/28 03:11:32;;;;;;;954.15;887.33;;;;;;;17.15;66.10;93260.53;5090357;28;20024;-48
2021/08/28 03:13:58;;;;;;;933.45;867.80;;;;;;;17.05;66.06;93241.03;5091487;28;20055;-46
2021/08/28 03:16:26;;;;;;;952.03;885.05;;;;;;;17.22;65.87;93265.16;5091680;28;20025;-49
2021/08/28 03:18:53;;;;;;;958.97;890.15;;;;;;;17.16;66.78;93268.28;5090232;28;20023;-47
2021/08/28 03:21:20;;;;;;;970.47;900.20;;;;;;;17.07;66.37;93262.75;5090362;28;20185;-49
2021/08/28 03:23:47;;;;;;;970.95;902.33;;;;;;;17.08;66.49;93258.66;5090293;28;20047;-48
2021/08/28 03:26:14;;;;;;;949.58;882.10;;;;;;;17.00;66.63;93264.41;5091251;28;20051;-47
2021/08/28 03:28:40;;;;;;;979.20;908.40;;;;;;;16.94;66.79;93266.78;5090320;28;20028;-48
2021/08/28 03:31:05;;;;;;;1003.53;931.95;;;;;;;16.67;66.93;93266.34;5091357;28;20024;-47
2021/08/28 03:33:31;;;;;;;967.47;899.92;;;;;;;16.59;67.62;93257.41;5089891;28;20512;-46
2021/08/28 03:35:57;;;;;;;949.15;882.95;;;;;;;16.47;68.93;93262.13;5090186;28;20024;-46
2021/08/28 03:38:23;;;;;;;952.28;888.35;;;;;;;16.40;69.52;93272.13;5091069;28;20098;-45
2021/08/28 03:40:48;;;;;;;934.35;871.30;;;;;;;16.43;69.50;93279.31;5090169;28;20060;-48
2021/08/28 03:43:14;;;;;;;926.42;863.05;;;;;;;16.57;69.95;93277.53;5090089;28;20028;-46
2021/08/28 03:45:40;;;;;;;921.90;860.78;;;;;;;16.75;69.05;93280.09;5091230;28;20393;-45
2021/08/28 03:48:07;;;;;;;927.60;864.05;;;;;;;16.89;69.44;93278.28;5091171;28;20046;-44
2021/08/28 03:50:33;;;;;;;930.08;866.03;;;;;;;17.02;68.94;93283.34;5089848;28;20024;-47
2021/08/28 03:52:58;;;;;;;949.38;883.10;;;;;;;17.00;67.25;93278.34;5091029;28;20549;-47
2021/08/28 03:55:23;;;;;;;970.33;902.47;;;;;;;17.09;67.50;93279.63;5090296;28;20065;-48
2021/08/28 03:57:49;;;;;;;968.38;900.95;;;;;;;17.15;67.01;93280.75;5090584;28;20032;-49
2021/08/28 04:00:14;;;;;;;959.15;892.28;;;;;;;17.18;68.17;93276.78;5090920;28;20076;-49
2021/08/28 04:02:40;;;;;;;942.45;875.92;;;;;;;17.21;67.46;93274.88;5090142;28;20028;-50
2021/08/28 04:05:06;;;;;;;971.33;902.78;;;;;;;17.27;67.74;93272.47;5090599;28;20117;-51
2021/08/28 04:07:31;;;;;;;961.08;895.50;;;;;;;17.34;67.26;93277.16;5090620;28;20028;-47
2021/08/28 04:09:56;;;;;;;947.50;881.22;;;;;;;17.36;66.46;93278.00;5088986;28;20032;-48
2021/08/28 04:12:22;;;;;;;977.40;908.58;;;;;;;17.42;66.91;93277.66;5089428;28;20027;-49
2021/08/28 04:14:47;;;;;;;982.30;911.15;;;;;;;17.50;67.30;93288.66;5090682;28;20039;-49
2021/08/28 04:17:13;;;;;;;973.90;905.70;;;;;;;17.53;67.14;93288.19;5090323;28;20496;-50
2021/08/28 04:19:38;;;;;;;964.15;896.63;;;;;;;17.59;67.53;93287.84;5090320;28;20020;-46
2021/08/28 04:22:04;;;;;;;935.22;868.97;;;;;;;17.54;67.63;93284.09;5090308;28;20024;-49
2021/08/28 04:24:29;;;;;;;969.88;902.05;;;;;;;17.57;67.88;93282.13;5090581;28;20035;-47
2021/08/28 04:26:55;;;;;;;977.70;907.05;;;;;;;17.60;66.40;93287.28;5090064;28;20048;-48
2021/08/28 04:29:20;;;;;;;973.22;904.38;;;;;;;17.69;66.29;93286.47;5087306;28;20036;-47
2021/08/28 04:31:46;;;;;;;985.53;914.90;;;;;;;17.72;65.75;93290.84;5072515;28;20561;-46
2021/08/28 04:34:11;;;;;;;972.90;904.10;;;;;;;17.75;65.70;93298.03;5077328;28;20024;-47
2021/08/28 04:36:37;;;;;;;950.20;883.35;;;;;;;17.75;64.80;93302.88;5083581;28;20024;-51
2021/08/28 04:39:02;;;;;;;943.85;877.17;;;;;;;17.70;64.46;93296.31;5080847;28;20032;-49
2021/08/28 04:41:28;;;;;;;958.22;890.65;;;;;;;17.69;64.50;93291.31;5086435;28;20112;-48
2021/08/28 04:43:53;;;;;;;952.90;887.15;;;;;;;17.66;64.58;93303.69;5070189;28;20405;-49
2021/08/28 04:46:19;;;;;;;954.80;887.03;;;;;;;17.68;65.08;93303.81;5084388;28;20032;-48
2021/08/28 04:48:46;;;;;;;980.70;912.17;;;;;;;17.68;64.97;93301.75;5089566;28;20020;-48
2021/08/28 04:51:12;;;;;;;946.13;880.13;;;;;;;17.65;64.61;93291.78;5089455;28;20028;-47
2021/08/28 04:53:37;;;;;;;962.10;894.30;;;;;;;17.71;65.01;93294.97;5089215;28;20107;-48
2021/08/28 04:56:03;;;;;;;965.45;898.33;;;;;;;17.79;65.32;93298.28;5089298;28;20039;-48
2021/08/28 04:58:28;;;;;;;975.53;906.45;;;;;;;17.85;64.86;93301.47;5089423;28;20024;-47
2021/08/28 05:00:54;;;;;;;942.80;877.70;;;;;;;17.89;64.29;93301.72;5089475;28;20028;-48
2021/08/28 05:03:20;;;;;;;947.33;881.28;;;;;;;17.91;64.41;93306.75;5089737;28;20470;-48
2021/08/28 05:05:45;;;;;;;960.60;893.10;;;;;;;17.89;64.24;93306.59;5089438;28;20024;-48
2021/08/28 05:08:11;;;;;;;932.95;869.75;;;;;;;17.91;63.62;93307.44;5089897;28;20024;-49
2021/08/28 05:10:36;;;;;;;951.85;884.42;;;;;;;18.00;63.98;93306.63;5088864;28;20032;-47
2021/08/28 05:13:02;;;;;;;951.90;885.10;;;;;;;18.06;64.14;93301.44;5090183;28;20046;-48
2021/08/28 05:15:27;;;;;;;951.58;885.70;;;;;;;18.11;63.71;93296.84;5091117;28;20031;-50
2021/08/28 05:17:52;;;;;;;916.28;854.08;;;;;;;18.17;63.57;93297.94;5093371;28;20085;-49
2021/08/28 05:20:18;;;;;;;904.00;841.10;;;;;;;18.17;63.72;93295.16;5093838;28;20051;-49
2021/08/28 05:22:43;;;;;;;924.75;862.58;;;;;;;18.17;63.77;93295.16;5093006;28;20471;-47
2021/08/28 05:25:09;;;;;;;921.65;857.08;;;;;;;18.20;64.33;93293.22;5091841;28;20028;-48
2021/08/28 05:27:35;;;;;;;958.75;892.22;;;;;;;18.27;63.89;93300.66;5072308;28;20020;-49
2021/08/28 05:30:00;;;;;;;961.83;894.08;;;;;;;18.31;62.96;93300.91;5072081;28;20024;-49
2021/08/28 05:32:26;;;;;;;916.40;853.90;;;;;;;18.25;63.27;93297.00;5071722;28;20036;-51
2021/08/28 05:34:53;;;;;;;929.25;865.85;;;;;;;18.02;63.03;93294.84;5071795;28;20054;-50
2021/08/28 05:37:18;;;;;;;946.55;881.53;;;;;;;17.80;64.68;93304.63;5071751;28;20485;-49
2021/08/28 05:39:44;;;;;;;943.38;879.08;;;;;;;17.76;65.10;93296.69;5071991;28;20020;-48
2021/08/28 05:42:09;;;;;;;969.65;901.25;;;;;;;17.75;65.02;93294.50;5072296;28;20032;-50
2021/08/28 05:44:34;;;;;;;949.92;883.20;;;;;;;17.86;65.29;93300.16;5073022;28;20024;-48
2021/08/28 05:47:00;;;;;;;957.05;887.50;;;;;;;17.91;65.20;93287.91;5072507;28;20032;-50
2021/08/28 05:49:25;;;;;;;967.40;898.70;;;;;;;18.21;64.35;93296.75;5071916;28;20029;-47
2021/08/28 05:51:51;;;;;;;944.22;876.78;;;;;;;18.46;63.80;93299.75;5072795;28;20031;-46
2021/08/28 05:54:16;;;;;;;926.95;863.13;;;;;;;18.67;62.74;93291.28;5072730;28;20032;-49
2021/08/28 05:56:42;;;;;;;883.65;826.28;;;;;;;18.84;61.45;93291.66;5072765;28;20113;-49
2021/08/28 05:59:07;;;;;;;831.17;779.42;;;;;;;18.98;60.44;93283.41;5072368;28;20048;-48
2021/08/28 06:01:33;;;;;;;858.40;802.25;;;;;;;19.19;60.92;93288.16;5072620;28;20032;-49
2021/08/28 06:03:58;;;;;;;883.35;826.38;;;;;;;19.35;60.71;93286.34;5072746;28;20024;-46
2021/08/28 06:06:23;;;;;;;831.15;777.80;;;;;;;19.49;60.23;93279.50;5072491;28;20390;-48
2021/08/28 06:08:49;;;;;;;845.60;792.13;;;;;;;19.58;59.50;93283.50;5072281;28;20074;-47
2021/08/28 06:11:14;;;;;;;818.42;768.72;;;;;;;19.66;59.55;93272.78;5072780;28;20028;-47
2021/08/28 06:13:40;;;;;;;834.03;783.63;;;;;;;19.72;60.14;93270.31;5072739;28;20020;-47
2021/08/28 06:16:05;;;;;;;807.40;757.30;;;;;;;19.81;59.69;93265.91;5072298;28;20233;-45
2021/08/28 06:18:31;;;;;;;815.72;767.10;;;;;;;19.89;58.43;93264.28;5072328;28;20035;-45
2021/08/28 06:20:58;;;;;;;805.92;757.15;;;;;;;19.88;58.73;93270.50;5072575;28;20059;-48
2021/08/28 06:23:24;;;;;;;786.53;738.35;;;;;;;19.95;58.62;93266.69;5072190;28;20056;-48
2021/08/28 06:25:49;;;;;;;817.58;768.17;;;;;;;20.03;58.79;93259.47;5077111;28;20059;-46
2021/08/28 06:28:15;;;;;;;845.50;794.38;;;;;;;20.18;59.94;93263.81;5092636;28;20020;-46
2021/08/28 06:30:41;;;;;;;830.80;780.67;;;;;;;20.32;59.77;93265.34;5092623;28;20017;-47
2021/08/28 06:33:07;;;;;;;802.47;753.55;;;;;;;20.44;59.24;93270.16;5092182;28;20089;-47
2021/08/28 06:35:32;;;;;;;829.38;777.97;;;;;;;20.44;58.79;93267.34;5092219;28;20059;-47
2021/08/28 06:37:58;;;;;;;811.97;763.13;;;;;;;20.35;57.97;93261.31;5092081;28;20059;-48
2021/08/28 06:40:23;;;;;;;805.92;756.45;;;;;;;20.35;58.98;93260.56;5092119;28;20070;-47
2021/08/28 06:42:49;;;;;;;815.63;766.55;;;;;;;20.32;58.07;93261.81;5092083;28;20016;-46
2021/08/28 06:45:14;;;;;;;805.50;756.55;;;;;;;20.25;58.49;93255.13;5091112;28;20034;-46
2021/08/28 06:47:40;;;;;;;814.72;765.17;;;;;;;20.30;58.64;93253.28;5092185;28;20153;-46
2021/08/28 06:50:07;;;;;;;816.47;765.97;;;;;;;20.32;58.58;93253.38;5092115;28;20047;-47
2021/08/28 06:52:32;;;;;;;812.95;763.47;;;;;;;20.29;57.71;93254.66;5091715;28;20024;-47
2021/08/28 06:54:57;;;;;;;824.42;774.40;;;;;;;20.32;58.76;93244.97;5091330;28;20054;-47
2021/08/28 06:57:23;;;;;;;821.13;771.53;;;;;;;20.37;57.59;93241.06;5091548;28;20030;-46
2021/08/28 06:59:48;;;;;;;811.25;762.65;;;;;;;20.44;58.60;93248.47;5091687;28;20027;-47
2021/08/28 07:02:14;;;;;;;834.85;784.85;;;;;;;20.49;57.79;93238.91;5091935;28;20023;-46
2021/08/28 07:04:39;;;;;;;790.97;743.67;;;;;;;20.52;58.00;93243.28;5091852;28;20020;-45
2021/08/28 07:07:05;;;;;;;833.63;782.55;;;;;;;20.61;57.49;93242.38;5090947;28;20528;-47
2021/08/28 07:09:30;;;;;;;817.55;767.40;;;;;;;20.68;57.86;93249.75;5088026;28;20024;-47
2021/08/28 07:11:56;;;;;;;813.55;764.25;;;;;;;20.74;57.92;93244.47;5087465;28;20111;-46
2021/08/28 07:14:21;;;;;;;804.15;754.88;;;;;;;20.87;57.70;93240.97;5088052;28;20036;-46
2021/08/28 07:16:47;;;;;;;829.47;779.85;;;;;;;21.04;57.21;93239.75;5087539;28;20243;-47
2021/08/28 07:19:12;;;;;;;826.03;775.88;;;;;;;21.28;56.29;93243.06;5087665;28;20023;-48
2021/08/28 07:21:38;;;;;;;868.38;813.15;;;;;;;21.48;55.13;93244.84;5087948;28;20019;-47
2021/08/28 07:24:04;;;;;;;837.50;784.03;;;;;;;21.64;55.11;93244.91;5085480;28;20332;-46
2021/08/28 07:26:30;;;;;;;857.97;803.08;;;;;;;21.72;55.04;93248.13;5087345;28;20047;-45
2021/08/28 07:28:55;;;;;;;866.08;811.58;;;;;;;21.78;54.85;93251.97;5084789;28;20394;-47
2021/08/28 07:31:21;;;;;;;854.22;800.50;;;;;;;21.83;55.09;93248.03;5084996;28;20033;-46
2021/08/28 07:33:46;;;;;;;869.28;813.72;;;;;;;21.94;54.66;93252.06;5085856;28;20090;-45
2021/08/28 07:36:12;;;;;;;864.90;809.88;;;;;;;22.02;53.35;93248.91;5086825;28;20023;-47
2021/08/28 07:38:37;;;;;;;849.00;794.90;;;;;;;22.18;53.70;93246.88;5086464;28;20024;-45
2021/08/28 07:41:03;;;;;;;863.25;808.35;;;;;;;22.31;52.97;93243.28;5084831;28;20031;-47
2021/08/28 07:43:30;;;;;;;833.40;781.15;;;;;;;22.52;53.08;93237.25;5086481;28;20501;-46
2021/08/28 07:45:57;;;;;;;813.97;764.35;;;;;;;23.03;52.18;93220.59;5082162;28;20402;-46
2021/08/28 07:48:23;;;;;;;727.55;684.35;;;;;;;23.82;49.99;93221.91;5085362;28;20036;-46
2021/08/28 07:50:49;;;;;;;383.25;363.40;;;;;;;25.16;47.42;93223.69;5082958;28;20032;-45
2021/08/28 07:53:14;;;;;;;156.23;148.88;;;;;;;27.00;43.13;93219.22;5086594;28;20036;-45
2021/08/28 07:55:40;;;;;;;10.18;8.98;;;;;;;28.48;39.97;93216.84;5086665;28;20024;-46
2021/08/28 07:58:05;;;;;;;9.00;8.10;;;;;;;29.06;37.57;93202.56;5086402;28;20020;-46
2021/08/28 08:00:31;;;;;;;9.00;8.20;;;;;;;29.77;35.95;93208.31;5085236;28;20034;-46
2021/08/28 08:02:57;;;;;;;8.85;8.00;;;;;;;30.18;36.32;93211.88;5087034;28;20027;-46
2021/08/28 08:05:23;;;;;;;9.20;8.30;;;;;;;29.33;38.03;93210.25;5086581;28;20024;-46
2021/08/28 08:07:48;;;;;;;10.50;8.75;;;;;;;29.90;36.83;93200.72;5086512;28;20057;-46
2021/08/28 08:10:14;;;;;;;11.32;8.70;;;;;;;31.15;33.98;93200.59;5083890;28;20024;-48
2021/08/28 08:12:39;;;;;;;16.55;8.25;;;;;;;32.41;31.63;93185.59;5085305;28;20050;-48
2021/08/28 08:15:07;;;;;;;10.15;8.73;;;;;;;32.09;32.83;93197.47;5086701;28;20032;-45
2021/08/28 08:17:32;;;;;;;9.87;8.83;;;;;;;32.81;31.90;93194.53;5083935;28;20039;-45
2021/08/28 08:19:58;;;;;;;9.10;8.20;;;;;;;32.17;32.91;93181.13;5086468;28;20438;-46
2021/08/28 08:22:24;;;;;;;9.57;8.68;;;;;;;32.39;32.28;93162.72;5083578;28;20516;-46
2021/08/28 08:24:49;;;;;;;10.25;9.10;;;;;;;33.68;30.04;93166.41;5083642;28;20035;-46
2021/08/28 08:27:15;;;;;;;9.93;8.93;;;;;;;34.95;28.47;93170.84;5086263;28;20047;-46
2021/08/28 08:29:41;;;;;;;12.63;9.00;;;;;;;35.77;26.82;93169.91;5086515;28;20070;-45
2021/08/28 08:32:07;;;;;;;9.60;8.40;;;;;;;36.42;26.92;93163.78;5085988;28;20551;-43
2021/08/28 08:34:34;;;;;;;9.50;8.60;;;;;;;34.32;30.23;93155.78;5085983;28;20829;-47
2021/08/28 08:36:59;;;;;;;8.98;8.15;;;;;;;34.33;28.98;93157.22;5085680;28;20034;-47
2021/08/28 08:39:25;;;;;;;9.57;8.60;;;;;;;33.25;30.67;93159.75;5084293;28;20031;-46
2021/08/28 08:41:51;;;;;;;9.98;9.07;;;;;;;32.82;33.51;93165.22;5086021;28;20024;-46
2021/08/28 08:44:17;;;;;;;9.73;8.75;;;;;;;33.05;32.96;93151.78;5083276;28;20880;-45
2021/08/28 08:46:44;;;;;;;11.20;8.85;;;;;;;33.72;31.72;93152.81;5084839;28;20059;-46
2021/08/28 08:49:12;;;;;;;10.43;9.32;;;;;;;34.52;29.62;93148.66;5087134;28;20085;-45
2021/08/28 08:51:38;;;;;;;9.82;8.93;;;;;;;35.00;28.60;93137.84;5088962;28;20390;-45
2021/08/28 08:54:05;;;;;;;12.10;8.95;;;;;;;36.03;28.29;93143.19;5090200;28;20036;-45
2021/08/28 08:56:31;;;;;;;10.48;9.38;;;;;;;36.72;26.54;93143.41;5088110;28;20024;-43
2021/08/28 08:58:58;;;;;;;10.02;8.93;;;;;;;37.16;25.65;93131.50;5089999;28;20046;-44
2021/08/28 09:01:24;;;;;;;11.20;9.23;;;;;;;36.69;26.33;93138.41;5090391;28;20047;-44
2021/08/28 09:03:50;;;;;;;10.65;9.32;;;;;;;36.02;28.22;93126.69;5087601;28;20036;-45
2021/08/28 09:06:16;;;;;;;10.05;9.10;;;;;;;35.56;28.46;93128.34;5090585;28;20088;-45
2021/08/28 09:08:41;;;;;;;11.52;10.43;;;;;;;34.68;29.69;93122.81;5089840;28;20026;-45
2021/08/28 09:11:30;;;;;;;10.65;9.55;;;;;;;35.53;28.36;93121.19;5086582;28;20028;-46
2021/08/28 09:14:14;;;;;;;10.40;9.48;;;;;;;35.13;29.65;93115.56;5086633;28;20052;-48
2021/08/28 09:16:40;;;;;;;15.05;11.05;;;;;;;34.84;30.63;93109.19;5086480;28;20039;-45
2021/08/28 09:19:05;;;;;;;11.80;10.57;;;;;;;34.98;30.82;93105.53;5088184;28;20440;-45
2021/08/28 09:21:32;;;;;;;12.95;10.18;;;;;;;36.49;28.80;93102.59;5086715;28;20024;-45
2021/08/28 09:24:00;;;;;;;10.20;9.15;;;;;;;37.52;27.11;93089.31;5088181;28;20035;-44
2021/08/28 09:26:37;;;;;;;12.18;10.32;;;;;;;38.38;26.30;93096.75;5087151;28;20052;-43
2021/08/28 09:29:05;;;;;;;10.38;9.32;;;;;;;36.27;28.37;93102.78;5088595;28;20432;-46
2021/08/28 09:31:38;;;;;;;10.25;9.25;;;;;;;37.63;27.55;93099.25;5090679;28;20387;-42
2021/08/28 09:34:23;;;;;;;10.15;9.07;;;;;;;36.61;26.68;93093.16;5091669;28;20557;-44
2021/08/28 09:37:00;;;;;;;12.00;10.90;;;;;;;33.82;32.82;93086.94;5093138;28;20101;-46
2021/08/28 09:39:50;;;;;;;11.55;10.45;;;;;;;33.43;32.84;93085.41;5093126;28;20035;-47
2021/08/28 09:42:21;;;;;;;12.55;11.35;;;;;;;33.52;32.06;93087.63;5093079;28;20032;-46
2021/08/28 09:44:48;;;;;;;14.18;11.98;;;;;;;31.65;34.63;93091.34;5092879;28;20036;-47
2021/08/28 09:47:16;;;;;;;15.55;12.15;;;;;;;30.21;39.01;93090.91;5092630;28;20051;-48
2021/08/28 09:49:43;;;;;;;12.85;11.65;;;;;;;29.09;41.44;93085.34;5092948;28;20024;-50
2021/08/28 09:52:11;;;;;;;15.23;12.90;;;;;;;29.08;42.12;93069.69;5092838;28;20039;-49
2021/08/28 09:54:38;;;;;;;13.77;11.75;;;;;;;29.69;41.15;93082.19;5092191;28;20043;-46
2021/08/28 09:57:04;;;;;;;14.05;12.55;;;;;;;29.65;40.92;93077.16;5092824;28;20077;-47
2021/08/28 09:59:29;;;;;;;14.63;11.77;;;;;;;30.22;40.15;93081.66;5091503;28;20047;-48
2021/08/28 10:01:55;;;;;;;14.25;12.13;;;;;;;30.46;40.17;93073.50;5079701;28;20075;-51
2021/08/28 10:04:21;;;;;;;12.75;11.27;;;;;;;31.58;36.76;93069.88;5091197;28;20602;-53
2021/08/28 10:06:48;;;;;;;12.15;11.02;;;;;;;31.87;37.12;93074.41;5091044;28;20032;-48
2021/08/28 10:09:14;;;;;;;13.45;10.43;;;;;;;32.61;35.24;93069.31;5080107;28;20031;-53
2021/08/28 10:11:42;;;;;;;11.00;9.95;;;;;;;33.91;31.95;93076.94;5077380;28;20060;-47
2021/08/28 10:14:08;;;;;;;11.38;10.20;;;;;;;35.07;30.22;93075.41;5081084;28;20035;-50
2021/08/28 10:16:35;;;;;;;10.52;9.55;;;;;;;35.95;28.95;93071.41;5082153;28;20024;-52
2021/08/28 10:19:00;;;;;;;11.82;10.70;;;;;;;35.99;29.39;93067.78;5079496;28;20027;-53
2021/08/28 10:21:26;;;;;;;11.27;10.05;;;;;;;35.40;29.47;93070.97;5080012;28;20488;-44
2021/08/28 10:23:54;;;;;;;15.52;11.45;;;;;;;34.66;30.87;93063.31;5081424;28;20103;-46
2021/08/28 10:26:20;;;;;;;11.60;10.40;;;;;;;34.46;30.87;93068.34;5089668;28;20044;-49
2021/08/28 10:28:45;;;;;;;17.08;9.88;;;;;;;35.01;29.54;93066.84;5090892;28;20059;-51
2021/08/28 10:31:11;;;;;;;16.77;10.15;;;;;;;34.24;30.47;93066.22;5091016;28;20416;-49
2021/08/28 10:33:37;;;;;;;12.25;10.65;;;;;;;33.16;32.44;93052.44;5090096;28;20020;-49
2021/08/28 10:36:07;;;;;;;12.40;11.00;;;;;;;32.70;33.44;93059.34;5088334;28;20129;-47
2021/08/28 10:38:34;;;;;;;12.85;11.70;;;;;;;32.06;34.96;93048.19;5090665;28;20078;-49
2021/08/28 10:40:59;;;;;;;13.25;11.95;;;;;;;31.82;35.77;93055.81;5089614;28;20028;-47
2021/08/28 10:43:25;;;;;;;12.80;11.48;;;;;;;31.64;36.21;93059.22;5072970;28;20028;-49
2021/08/28 10:45:51;;;;;;;12.00;10.85;;;;;;;32.15;37.70;93058.25;5079242;28;20027;-50
2021/08/28 10:48:16;;;;;;;14.75;12.25;;;;;;;33.43;33.41;93034.63;5073267;28;20021;-55
2021/08/28 10:50:43;;;;;;;11.75;10.48;;;;;;;35.47;31.64;93051.56;5070600;28;20418;-52
2021/08/28 10:53:10;;;;;;;10.40;9.00;;;;;;;35.50;28.76;93033.59;5070457;28;20066;-49
2021/08/28 10:55:45;;;;;;;12.18;8.82;;;;;;;36.12;29.14;93031.75;5088837;28;20028;-51
2021/08/28 10:58:13;;;;;;;10.23;8.88;;;;;;;37.13;26.13;93040.09;5090560;28;20035;-51
2021/08/28 11:00:39;;;;;;;;;;;;;;;37.07;26.30;93037.31;5090844;28;20043;-49
2021/08/28 11:03:05;;;;;;;15.52;10.15;;;;;;;36.39;27.98;93039.41;5090821;28;19951;-44
2021/08/28 11:05:31;;;;;;;10.20;9.30;;;;;;;36.01;29.27;93039.03;5088909;28;20024;-49